Time;durP1;ratioP1;P1;durP2;ratioP2;P2;SDS_P1;SDS_P2;PMS_P1;PMS_P2;Temp;Humidity;BMP_temperature;BMP_pressure;BME280_temperature;BME280_humidity;BME280_pressure;Samples;Min_cycle;Max_cycle;Signal;HPM_P1;HPM_P2
2022/03/15 00:00:21;;;;;;;8.77;5.05;;;;;;;7.51;62.76;101092.66;1084045;54;20042;-76
2022/03/15 00:01:25;;;;;;;8.95;5.18;;;;;;;7.46;62.99;101084.13;1086976;47;20042;-76
2022/03/15 00:02:27;;;;;;;7.90;4.28;;;;;;;7.39;63.14;101093.44;1086032;54;20125;-76
2022/03/15 00:03:31;;;;;;;9.50;4.38;;;;;;;7.41;63.15;101088.88;1084596;54;20065;-76
2022/03/15 00:04:33;;;;;;;8.07;4.47;;;;;;;7.40;62.80;101087.16;1086363;46;20057;-76
2022/03/15 00:05:37;;;;;;;7.70;4.50;;;;;;;7.43;62.84;101089.63;1084373;54;20082;-76
2022/03/15 00:06:38;;;;;;;8.27;4.70;;;;;;;7.40;63.10;101093.34;1083649;54;20066;-76
2022/03/15 00:07:45;;;;;;;8.23;4.65;;;;;;;7.38;63.13;101084.63;1083398;54;20050;-76
2022/03/15 00:08:48;;;;;;;7.55;4.43;;;;;;;7.36;63.02;101081.19;1083689;54;20079;-76
2022/03/15 00:09:52;;;;;;;8.98;4.03;;;;;;;7.39;62.98;101085.44;1083665;54;20716;-77
2022/03/15 00:10:58;;;;;;;9.90;4.63;;;;;;;7.39;62.93;101085.44;1083251;54;20594;-76
2022/03/15 00:12:01;;;;;;;7.68;4.22;;;;;;;7.30;63.11;101087.75;1083557;39;20657;-77
2022/03/15 00:13:07;;;;;;;9.05;4.15;;;;;;;7.34;63.18;101096.38;1083459;54;20560;-77
2022/03/15 00:14:14;;;;;;;7.80;4.32;;;;;;;7.30;63.05;101090.41;1083434;54;20062;-76
2022/03/15 00:15:16;;;;;;;9.52;4.13;;;;;;;7.25;63.39;101097.84;1083593;54;20030;-77
2022/03/15 00:16:20;;;;;;;10.65;4.68;;;;;;;7.25;63.41;101089.88;1083791;54;20045;-76
2022/03/15 00:17:22;;;;;;;9.02;4.25;;;;;;;7.24;63.20;101098.78;1083656;54;20622;-77
2022/03/15 00:18:30;;;;;;;9.93;4.95;;;;;;;7.24;63.29;101097.91;1083779;47;20651;-76
2022/03/15 00:19:31;;;;;;;8.25;3.65;;;;;;;7.23;63.34;101097.09;1083305;54;20038;-76
2022/03/15 00:20:36;;;;;;;6.60;3.88;;;;;;;7.21;63.50;101103.47;1083914;54;20038;-76
2022/03/15 00:21:38;;;;;;;10.63;4.30;;;;;;;7.20;63.46;101099.09;1083543;54;20073;-77
2022/03/15 00:22:46;;;;;;;7.47;4.00;;;;;;;7.27;63.50;101105.72;1083772;54;20046;-76
2022/03/15 00:23:50;;;;;;;6.93;4.07;;;;;;;7.28;63.24;101110.94;1083933;46;20038;-76
2022/03/15 00:24:51;;;;;;;7.43;4.22;;;;;;;7.29;63.64;101109.13;1083734;54;20038;-76
2022/03/15 00:25:56;;;;;;;8.63;4.40;;;;;;;7.25;63.61;101107.63;1085018;39;20512;-76
2022/03/15 00:26:58;;;;;;;7.95;4.35;;;;;;;7.25;63.52;101105.81;1083745;54;20050;-76
2022/03/15 00:28:02;;;;;;;9.50;5.22;;;;;;;7.24;63.77;101098.78;1083175;54;20038;-76
2022/03/15 00:29:04;;;;;;;7.63;4.90;;;;;;;7.25;63.75;101110.28;1082762;54;20053;-76
2022/03/15 00:30:09;;;;;;;8.05;4.50;;;;;;;7.24;63.51;101103.25;1083378;54;20038;-77
2022/03/15 00:31:13;;;;;;;7.63;4.45;;;;;;;7.25;63.42;101108.47;1083549;54;20050;-76
2022/03/15 00:32:17;;;;;;;10.48;5.03;;;;;;;7.23;63.45;101102.41;1083566;47;20035;-77
2022/03/15 00:33:22;;;;;;;8.77;4.78;;;;;;;7.21;63.43;101098.13;1083775;54;20043;-77
2022/03/15 00:34:26;;;;;;;7.13;4.22;;;;;;;7.19;63.64;101095.56;1083574;54;20100;-77
2022/03/15 00:35:28;;;;;;;9.55;4.80;;;;;;;7.20;63.53;101107.91;1083564;54;20043;-76
2022/03/15 00:36:34;;;;;;;8.98;4.82;;;;;;;7.20;63.73;101107.06;1083791;54;20039;-76
2022/03/15 00:37:38;;;;;;;8.77;4.30;;;;;;;7.17;63.72;101102.81;1083920;54;20062;-76
2022/03/15 00:39:49;;;;;;;9.43;4.80;;;;;;;7.09;64.21;101102.41;1086843;54;20070;-79
2022/03/15 00:40:51;;;;;;;7.60;4.05;;;;;;;7.02;64.22;101100.13;1087277;54;20194;-77
2022/03/15 00:41:56;;;;;;;9.07;4.75;;;;;;;6.95;64.76;101103.25;1087034;54;20049;-78
2022/03/15 00:42:58;;;;;;;9.50;4.88;;;;;;;7.01;64.35;101098.44;1087181;54;20054;-79
2022/03/15 00:44:02;;;;;;;9.10;5.00;;;;;;;7.11;64.00;101097.84;1087361;54;20030;-79
2022/03/15 00:45:05;;;;;;;8.32;4.32;;;;;;;7.16;63.80;101091.28;1086884;54;20069;-77
2022/03/15 00:46:09;;;;;;;6.60;3.97;;;;;;;7.19;63.62;101087.56;1087784;46;20058;-77
2022/03/15 00:47:11;;;;;;;8.40;4.35;;;;;;;7.18;63.84;101085.88;1086483;54;20038;-77
2022/03/15 00:48:15;;;;;;;7.05;3.97;;;;;;;7.18;63.64;101085.88;1087123;39;20479;-78
2022/03/15 00:49:17;;;;;;;9.05;4.93;;;;;;;7.13;63.77;101087.97;1086757;54;20042;-76
2022/03/15 00:50:21;;;;;;;6.88;3.92;;;;;;;7.15;63.88;101083.41;1086775;54;20038;-77
2022/03/15 00:51:23;;;;;;;7.43;4.00;;;;;;;7.18;63.82;101084.06;1087033;54;20042;-77
2022/03/15 00:52:27;;;;;;;6.85;3.80;;;;;;;7.10;64.01;101089.03;1086636;54;20043;-78
2022/03/15 00:53:28;;;;;;;8.57;4.57;;;;;;;7.01;64.35;101087.78;1086674;54;20062;-77
2022/03/15 00:54:33;;;;;;;7.45;4.50;;;;;;;7.06;64.32;101091.97;1087272;54;20034;-78
2022/03/15 00:55:40;;;;;;;6.50;3.80;;;;;;;7.11;64.22;101087.22;1087287;54;20073;-78
2022/03/15 00:56:41;;;;;;;8.63;4.15;;;;;;;7.10;63.84;101088.16;1087502;47;20045;-79
2022/03/15 00:57:46;;;;;;;7.03;4.28;;;;;;;7.01;64.26;101093.09;1087135;54;20038;-77
2022/03/15 00:58:48;;;;;;;10.35;4.75;;;;;;;6.89;64.64;101099.22;1087031;54;20035;-78
2022/03/15 00:59:52;;;;;;;9.70;5.20;;;;;;;6.82;64.95;101093.41;1087285;54;20150;-77
2022/03/15 01:00:56;;;;;;;7.78;4.50;;;;;;;6.84;64.80;101095.97;1087289;54;20025;-79
2022/03/15 01:01:58;;;;;;;9.05;5.40;;;;;;;6.87;64.79;101085.16;1087333;39;20520;-77
2022/03/15 01:03:02;;;;;;;7.60;4.57;;;;;;;6.96;64.67;101092.56;1086916;46;20073;-77
2022/03/15 01:04:04;;;;;;;10.02;4.93;;;;;;;6.91;64.89;101085.81;1087424;39;20532;-79
2022/03/15 01:05:09;;;;;;;10.18;5.60;;;;;;;6.90;64.90;101076.97;1086418;54;20039;-79
2022/03/15 01:06:10;;;;;;;9.65;5.68;;;;;;;6.81;65.06;101070.44;1086402;54;20038;-79
2022/03/15 01:07:14;;;;;;;9.80;5.65;;;;;;;6.82;65.19;101079.25;1086808;54;20059;-77
2022/03/15 01:08:19;;;;;;;9.95;5.40;;;;;;;6.84;65.01;101080.88;1086920;47;20038;-77
2022/03/15 01:09:21;;;;;;;10.18;4.90;;;;;;;6.89;64.87;101075.28;1086403;54;20034;-77
2022/03/15 01:10:25;;;;;;;8.02;4.40;;;;;;;6.95;64.60;101077.56;1086831;54;20038;-77
2022/03/15 01:11:29;;;;;;;6.78;4.03;;;;;;;6.99;64.26;101075.56;1086971;54;20045;-77
2022/03/15 01:12:34;;;;;;;8.68;4.20;;;;;;;7.02;64.16;101067.41;1087274;54;20035;-78
2022/03/15 01:13:35;;;;;;;9.43;4.30;;;;;;;6.95;64.46;101069.56;1086846;54;20061;-78
2022/03/15 01:14:39;;;;;;;9.25;4.80;;;;;;;6.94;64.48;101072.34;1087155;54;20046;-78
2022/03/15 01:15:45;;;;;;;6.22;3.67;;;;;;;6.97;64.39;101075.66;1086799;54;20042;-77
2022/03/15 01:16:46;;;;;;;6.97;4.10;;;;;;;7.03;64.30;101074.41;1086870;54;20030;-78
2022/03/15 01:17:51;;;;;;;8.00;4.63;;;;;;;7.02;64.18;101067.41;1086943;54;20068;-77
2022/03/15 01:18:52;;;;;;;9.00;4.13;;;;;;;6.98;64.26;101061.41;1086837;54;20023;-77
2022/03/15 01:19:56;;;;;;;7.15;3.90;;;;;;;6.98;64.42;101069.41;1086978;54;20046;-78
2022/03/15 01:21:00;;;;;;;9.38;5.07;;;;;;;6.93;64.55;101067.97;1086928;54;20049;-76
2022/03/15 01:22:03;;;;;;;6.90;3.92;;;;;;;6.95;64.43;101058.06;1086890;54;20039;-79
2022/03/15 01:23:07;;;;;;;7.72;3.90;;;;;;;6.93;64.46;101060.84;1086940;54;20030;-77
2022/03/15 01:24:09;;;;;;;8.20;4.00;;;;;;;6.91;64.53;101054.75;1086719;54;20043;-77
2022/03/15 01:25:13;;;;;;;7.97;4.55;;;;;;;6.82;64.97;101058.00;1087629;47;20041;-76
2022/03/15 01:26:15;;;;;;;7.15;3.95;;;;;;;6.81;64.98;101059.81;1086303;54;20054;-77
2022/03/15 01:27:22;;;;;;;9.02;3.92;;;;;;;6.84;65.09;101056.97;1086772;54;20098;-78
2022/03/15 01:28:24;;;;;;;7.97;4.47;;;;;;;6.85;64.83;101057.81;1086727;54;20039;-76
2022/03/15 01:29:29;;;;;;;6.90;4.25;;;;;;;6.90;64.62;101054.88;1086825;54;20038;-77
2022/03/15 01:30:31;;;;;;;6.55;3.53;;;;;;;6.90;64.81;101060.19;1087553;47;20061;-78
2022/03/15 01:31:35;;;;;;;6.32;3.65;;;;;;;6.92;64.54;101055.63;1086781;54;20034;-78
2022/03/15 01:32:39;;;;;;;7.53;4.28;;;;;;;6.92;64.78;101061.78;1087313;54;20046;-77
2022/03/15 01:33:41;;;;;;;7.82;3.60;;;;;;;6.94;64.63;101057.22;1087298;54;20046;-77
2022/03/15 01:34:45;;;;;;;9.38;4.00;;;;;;;6.92;64.63;101056.47;1087259;54;20050;-77
2022/03/15 01:35:47;;;;;;;6.85;3.63;;;;;;;6.94;64.56;101054.56;1088467;46;20069;-76
2022/03/15 01:36:52;;;;;;;7.30;3.70;;;;;;;6.95;64.63;101048.31;1087085;54;20624;-76
2022/03/15 01:37:53;;;;;;;9.02;4.05;;;;;;;6.93;64.90;101044.88;1087605;54;20090;-76
2022/03/15 01:38:58;;;;;;;6.53;3.60;;;;;;;6.96;64.68;101046.50;1087307;54;20579;-77
2022/03/15 01:39:59;;;;;;;8.05;3.38;;;;;;;6.95;64.78;101045.66;1087889;54;20094;-78
2022/03/15 01:41:03;;;;;;;7.78;3.63;;;;;;;6.97;64.64;101049.06;1087686;54;20067;-78
2022/03/15 01:42:06;;;;;;;6.57;3.67;;;;;;;7.01;64.42;101049.72;1087585;39;20725;-77
2022/03/15 01:43:13;;;;;;;8.65;4.15;;;;;;;7.02;64.49;101049.63;1087449;54;20087;-76
2022/03/15 01:44:16;;;;;;;9.82;4.00;;;;;;;6.91;64.64;101046.78;1090166;39;20476;-76
2022/03/15 01:45:20;;;;;;;7.55;3.90;;;;;;;6.90;64.75;101055.69;1087774;54;20039;-76
2022/03/15 01:46:22;;;;;;;6.88;3.97;;;;;;;6.89;64.72;101051.38;1087899;54;20031;-76
2022/03/15 01:47:26;;;;;;;6.43;3.78;;;;;;;6.82;64.86;101045.56;1087954;54;20079;-77
2022/03/15 01:48:27;;;;;;;11.57;5.07;;;;;;;6.79;64.98;101044.91;1088382;39;20310;-78
2022/03/15 01:49:32;;;;;;;7.00;3.72;;;;;;;6.81;65.05;101045.66;1087779;54;20042;-76
2022/03/15 01:50:34;;;;;;;9.68;4.03;;;;;;;6.80;64.97;101043.97;1087823;54;20273;-76
2022/03/15 01:51:40;;;;;;;7.88;4.30;;;;;;;6.75;65.03;101038.06;1088075;54;20046;-76
2022/03/15 01:52:43;;;;;;;7.38;3.75;;;;;;;6.77;65.19;101031.69;1088082;54;20875;-77
2022/03/15 01:53:47;;;;;;;8.05;3.80;;;;;;;6.75;65.14;101032.75;1087811;54;20560;-75
2022/03/15 01:54:50;;;;;;;9.80;4.28;;;;;;;6.62;65.65;101036.16;1087996;54;20042;-76
2022/03/15 01:55:54;;;;;;;9.98;4.25;;;;;;;6.62;65.62;101038.81;1088029;54;20043;-76
2022/03/15 01:56:56;;;;;;;8.07;4.65;;;;;;;6.63;65.39;101035.22;1087892;54;20047;-77
2022/03/15 01:58:00;;;;;;;7.82;4.55;;;;;;;6.65;65.41;101038.63;1087819;54;20042;-76
2022/03/15 01:59:04;;;;;;;7.53;3.95;;;;;;;6.66;65.26;101034.19;1087401;54;20067;-77
2022/03/15 02:00:10;;;;;;;6.75;3.95;;;;;;;6.70;65.22;101036.56;1087554;54;20031;-76
2022/03/15 02:01:12;;;;;;;8.45;4.30;;;;;;;6.71;65.02;101035.59;1087719;54;20038;-77
2022/03/15 02:02:16;;;;;;;9.23;4.75;;;;;;;6.67;65.46;101039.41;1087690;54;20026;-76
2022/03/15 02:03:18;;;;;;;6.30;3.80;;;;;;;6.65;65.25;101038.63;1087777;54;20061;-76
2022/03/15 02:04:23;;;;;;;8.68;4.07;;;;;;;6.60;65.68;101040.75;1087629;54;20106;-76
2022/03/15 02:05:24;;;;;;;8.10;4.60;;;;;;;6.58;65.48;101032.00;1087690;54;20050;-77
2022/03/15 02:06:28;;;;;;;8.90;4.13;;;;;;;6.58;65.91;101034.66;1087607;54;20069;-77
2022/03/15 02:07:33;;;;;;;7.97;4.03;;;;;;;6.59;65.71;101031.06;1087649;54;20034;-78
2022/03/15 02:08:35;;;;;;;8.27;4.25;;;;;;;6.63;65.57;101029.91;1087647;54;20041;-77
2022/03/15 02:09:40;;;;;;;7.53;4.05;;;;;;;6.63;65.56;101029.91;1087580;54;20042;-78
2022/03/15 02:10:42;;;;;;;7.60;3.75;;;;;;;6.66;65.39;101028.88;1087596;54;20114;-77
2022/03/15 02:11:46;;;;;;;6.45;3.40;;;;;;;6.69;65.36;101026.00;1087694;54;20046;-77
2022/03/15 02:12:51;;;;;;;6.45;3.45;;;;;;;6.71;65.37;101022.31;1087714;54;20030;-78
2022/03/15 02:13:52;;;;;;;7.60;4.10;;;;;;;6.70;65.28;101028.59;1087762;46;20038;-75
2022/03/15 02:15:02;;;;;;;7.88;3.70;;;;;;;6.71;65.43;101027.63;1088924;39;20617;-76
2022/03/15 02:16:06;;;;;;;12.02;5.03;;;;;;;6.62;65.95;101028.19;1087112;54;20038;-76
2022/03/15 02:17:10;;;;;;;8.13;4.50;;;;;;;6.64;65.65;101026.31;1087706;54;20058;-76
2022/03/15 02:18:11;;;;;;;7.32;4.60;;;;;;;6.55;65.85;101029.53;1087913;54;20031;-77
2022/03/15 02:19:16;;;;;;;9.88;4.72;;;;;;;6.54;65.94;101022.50;1087900;54;20034;-77
2022/03/15 02:20:21;;;;;;;8.70;4.65;;;;;;;6.54;65.87;101025.16;1087856;54;20035;-76
2022/03/15 02:21:25;;;;;;;8.05;4.38;;;;;;;6.46;66.19;101019.47;1087821;54;20033;-78
2022/03/15 02:22:26;;;;;;;9.02;5.03;;;;;;;6.43;66.58;101023.19;1088007;54;20038;-76
2022/03/15 02:23:31;;;;;;;8.60;4.53;;;;;;;6.39;66.61;101017.19;1088987;46;20018;-76
2022/03/15 02:24:34;;;;;;;8.75;4.60;;;;;;;6.43;66.60;101022.31;1088533;46;20046;-76
2022/03/15 02:25:38;;;;;;;9.25;4.35;;;;;;;6.46;66.28;101025.66;1088055;54;20034;-77
2022/03/15 02:26:40;;;;;;;7.10;4.07;;;;;;;6.51;66.13;101030.69;1088128;54;20162;-76
2022/03/15 02:27:44;;;;;;;6.68;3.90;;;;;;;6.54;66.18;101022.50;1088110;54;20070;-77
2022/03/15 02:28:46;;;;;;;8.27;4.20;;;;;;;6.49;66.17;101021.94;1087972;54;20587;-77
2022/03/15 02:29:50;;;;;;;8.40;4.63;;;;;;;6.49;66.46;101021.94;1090132;39;20521;-78
2022/03/15 02:30:51;;;;;;;7.22;3.80;;;;;;;6.52;66.14;101017.28;1087978;54;20042;-77
2022/03/15 02:31:55;;;;;;;9.60;4.13;;;;;;;6.57;65.89;101024.97;1087717;54;20034;-77
2022/03/15 02:32:57;;;;;;;7.05;3.58;;;;;;;6.56;65.98;101023.28;1087526;54;20042;-76
2022/03/15 02:34:01;;;;;;;7.95;4.07;;;;;;;6.59;65.99;101023.09;1087850;54;20030;-76
2022/03/15 02:35:03;;;;;;;6.75;3.95;;;;;;;6.61;66.05;101029.16;1087691;54;20026;-77
2022/03/15 02:36:10;;;;;;;6.75;4.05;;;;;;;6.62;66.06;101028.19;1087015;54;20058;-76
2022/03/15 02:37:12;;;;;;;7.63;4.20;;;;;;;6.61;65.99;101025.63;1087189;54;20827;-77
2022/03/15 02:38:16;;;;;;;10.20;4.05;;;;;;;6.66;65.79;101028.88;1087706;54;20031;-77
2022/03/15 02:39:17;;;;;;;7.53;4.10;;;;;;;6.64;65.80;101026.31;1087145;54;20065;-76
2022/03/15 02:40:21;;;;;;;7.72;3.88;;;;;;;6.66;65.57;101024.41;1086899;54;20039;-75
2022/03/15 02:41:23;;;;;;;6.57;3.88;;;;;;;6.71;65.64;101024.13;1087282;54;20061;-76
2022/03/15 02:42:27;;;;;;;6.93;4.03;;;;;;;6.70;65.71;101020.63;1087902;54;20031;-76
2022/03/15 02:43:29;;;;;;;7.03;3.95;;;;;;;6.65;65.74;101020.03;1087528;54;20037;-77
2022/03/15 02:44:33;;;;;;;7.68;3.97;;;;;;;6.63;65.62;101024.59;1087521;54;20026;-76
2022/03/15 02:45:35;;;;;;;9.13;4.00;;;;;;;6.61;65.68;101021.19;1087676;54;20042;-77
2022/03/15 02:46:39;;;;;;;8.80;4.45;;;;;;;6.58;65.81;101015.19;1087690;54;20047;-76
2022/03/15 02:47:43;;;;;;;11.90;4.20;;;;;;;6.55;66.08;101011.81;1087519;54;20015;-76
2022/03/15 02:48:47;;;;;;;7.03;4.15;;;;;;;6.59;65.86;101008.94;1087146;54;20039;-77
2022/03/15 02:49:49;;;;;;;8.90;4.60;;;;;;;6.52;66.04;101011.09;1087244;47;20039;-76
2022/03/15 02:50:53;;;;;;;7.18;3.90;;;;;;;6.58;65.81;101005.44;1087767;54;20034;-77
2022/03/15 02:51:57;;;;;;;8.30;4.15;;;;;;;6.50;66.48;101002.41;1087648;54;20034;-76
2022/03/15 02:53:01;;;;;;;7.38;4.13;;;;;;;6.51;66.18;101004.97;1088172;46;20027;-75
2022/03/15 02:54:07;;;;;;;11.65;5.57;;;;;;;6.50;66.17;101003.25;1087886;54;20031;-76
2022/03/15 02:55:12;;;;;;;7.82;3.70;;;;;;;6.52;66.33;100996.03;1088048;54;20094;-75
2022/03/15 02:56:13;;;;;;;9.00;4.60;;;;;;;6.50;66.02;101010.38;1088144;54;20034;-76
2022/03/15 02:57:17;;;;;;;8.77;4.32;;;;;;;6.45;66.38;101007.13;1088040;54;20045;-77
2022/03/15 02:58:19;;;;;;;7.20;3.97;;;;;;;6.41;66.57;101001.16;1088143;54;20031;-76
2022/03/15 02:59:23;;;;;;;7.60;4.15;;;;;;;6.44;66.56;101002.75;1088100;54;20035;-76
2022/03/15 03:00:27;;;;;;;6.28;3.58;;;;;;;6.47;66.45;101005.25;1088065;54;20042;-76
2022/03/15 03:01:31;;;;;;;7.53;3.78;;;;;;;6.53;66.05;100999.53;1088127;54;20031;-75
2022/03/15 03:02:33;;;;;;;10.90;3.95;;;;;;;6.55;66.06;101000.31;1088160;54;20030;-76
2022/03/15 03:03:38;;;;;;;7.88;3.85;;;;;;;6.58;65.96;101004.56;1088022;54;20097;-76
2022/03/15 03:04:40;;;;;;;7.30;3.90;;;;;;;6.55;66.08;100997.66;1091658;39;20262;-75
2022/03/15 03:05:44;;;;;;;8.45;3.50;;;;;;;6.55;66.05;100995.88;1087745;54;20030;-76
2022/03/15 03:06:45;;;;;;;6.88;3.90;;;;;;;6.58;66.04;100996.59;1087878;54;20038;-76
2022/03/15 03:07:52;;;;;;;7.15;3.80;;;;;;;6.58;65.77;100991.28;1088177;54;20034;-75
2022/03/15 03:08:54;;;;;;;7.57;4.22;;;;;;;6.62;65.67;100996.31;1088064;54;20065;-76
2022/03/15 03:09:59;;;;;;;6.57;3.10;;;;;;;6.65;65.76;100990.81;1088134;54;20038;-76
2022/03/15 03:11:01;;;;;;;6.00;3.60;;;;;;;6.68;65.68;100987.97;1087951;54;20046;-77
2022/03/15 03:12:06;;;;;;;6.32;2.88;;;;;;;6.70;65.49;100985.22;1088102;54;20049;-76
2022/03/15 03:13:10;;;;;;;8.38;3.75;;;;;;;6.66;65.84;100987.22;1088084;54;20035;-76
2022/03/15 03:14:15;;;;;;;8.10;3.60;;;;;;;6.68;65.66;100987.09;1088090;54;20043;-76
2022/03/15 03:15:19;;;;;;;6.65;3.50;;;;;;;6.70;65.49;100991.38;1088058;54;20604;-76
2022/03/15 03:16:24;;;;;;;5.03;2.85;;;;;;;6.73;65.35;100998.31;1087983;54;20046;-76
2022/03/15 03:17:25;;;;;;;6.55;3.35;;;;;;;6.78;65.60;100995.38;1088027;54;20043;-76
2022/03/15 03:18:32;;;;;;;8.35;3.55;;;;;;;6.76;65.50;100997.25;1087939;54;20041;-76
2022/03/15 03:19:39;;;;;;;6.05;3.03;;;;;;;6.78;65.56;100998.03;1088117;54;20669;-76
2022/03/15 03:20:40;;;;;;;9.00;4.38;;;;;;;6.75;65.43;100991.09;1087993;54;20038;-76
2022/03/15 03:21:48;;;;;;;8.85;4.18;;;;;;;6.65;65.64;100985.50;1087576;54;20041;-75
2022/03/15 03:22:53;;;;;;;7.35;3.80;;;;;;;6.64;65.99;100983.78;1090539;39;20539;-76
2022/03/15 03:23:58;;;;;;;6.78;3.92;;;;;;;6.71;65.61;100973.63;1087943;54;20035;-78
2022/03/15 03:25:00;;;;;;;7.03;3.45;;;;;;;6.75;65.34;100975.16;1087635;54;20039;-76
2022/03/15 03:26:04;;;;;;;5.95;3.28;;;;;;;6.77;65.32;100983.03;1088266;46;20035;-76
2022/03/15 03:27:06;;;;;;;5.95;3.83;;;;;;;6.77;65.47;100985.69;1088154;54;20089;-76
2022/03/15 03:28:13;;;;;;;7.15;3.92;;;;;;;6.78;65.44;100984.72;1088151;54;20075;-78
2022/03/15 03:29:15;;;;;;;6.07;3.47;;;;;;;6.79;65.31;100981.97;1088073;54;20026;-79
2022/03/15 03:30:20;;;;;;;6.70;3.53;;;;;;;6.81;65.56;100973.88;1088219;54;20082;-77
2022/03/15 03:31:21;;;;;;;7.93;3.67;;;;;;;6.75;65.46;100985.78;1088199;54;20038;-80
2022/03/15 03:32:26;;;;;;;7.00;3.65;;;;;;;6.63;65.88;100989.22;1088086;54;20041;-77
2022/03/15 03:33:28;;;;;;;9.48;3.70;;;;;;;6.73;65.74;100977.06;1087914;54;20071;-76
2022/03/15 03:34:34;;;;;;;7.65;3.50;;;;;;;6.78;65.85;100982.06;1087946;54;20026;-78
2022/03/15 03:35:35;;;;;;;6.07;3.25;;;;;;;6.78;65.60;100980.25;1089381;46;20034;-76
2022/03/15 03:36:40;;;;;;;7.75;4.03;;;;;;;6.65;66.17;100982.84;1088168;54;20058;-80
2022/03/15 03:37:41;;;;;;;7.75;3.75;;;;;;;6.64;66.05;100969.66;1088963;46;20038;-77
2022/03/15 03:38:49;;;;;;;8.30;3.90;;;;;;;6.70;66.22;100970.13;1087805;54;20038;-76
2022/03/15 03:39:51;;;;;;;6.72;3.97;;;;;;;6.62;66.30;100977.72;1087223;54;20037;-76
2022/03/15 03:40:57;;;;;;;9.38;4.32;;;;;;;6.63;66.03;100971.44;1088239;54;20083;-77
2022/03/15 03:41:59;;;;;;;8.02;4.13;;;;;;;6.54;66.20;100966.72;1088045;54;20061;-76
2022/03/15 03:43:03;;;;;;;8.25;4.53;;;;;;;6.49;66.31;100963.50;1088150;54;20026;-77
2022/03/15 03:44:04;;;;;;;7.93;4.70;;;;;;;6.39;66.60;100960.56;1087990;54;20039;-78
2022/03/15 03:45:09;;;;;;;11.73;5.43;;;;;;;6.19;67.33;100967.94;1088125;54;20030;-78
2022/03/15 03:46:11;;;;;;;9.77;5.15;;;;;;;6.07;67.88;100972.19;1088051;54;20049;-76
2022/03/15 03:47:15;;;;;;;12.45;5.97;;;;;;;6.02;68.11;100984.03;1088913;46;20033;-76
2022/03/15 03:48:17;;;;;;;10.38;4.72;;;;;;;6.08;67.99;100967.75;1088104;54;20039;-77
2022/03/15 03:49:21;;;;;;;8.88;4.85;;;;;;;6.19;67.50;100962.63;1088045;54;20113;-77
2022/03/15 03:50:23;;;;;;;8.85;4.53;;;;;;;6.31;67.35;100963.69;1087992;54;20043;-76
2022/03/15 03:51:27;;;;;;;8.55;4.97;;;;;;;6.39;66.88;100961.41;1088201;46;20026;-76
2022/03/15 03:52:29;;;;;;;7.78;4.22;;;;;;;6.45;66.62;100967.28;1088450;46;20058;-76
2022/03/15 03:53:33;;;;;;;7.80;4.03;;;;;;;6.51;66.58;100961.59;1088073;54;20588;-78
2022/03/15 03:54:37;;;;;;;6.95;3.72;;;;;;;6.48;66.47;100964.44;1087721;54;20022;-76
2022/03/15 03:55:43;;;;;;;7.38;4.10;;;;;;;6.29;67.02;100954.97;1087672;54;20040;-76
2022/03/15 03:56:45;;;;;;;9.82;4.72;;;;;;;6.24;67.45;100951.72;1087507;54;20034;-76
2022/03/15 03:57:49;;;;;;;11.88;4.53;;;;;;;6.24;67.24;100959.69;1087998;54;20027;-77
2022/03/15 03:58:50;;;;;;;7.38;4.20;;;;;;;6.38;66.94;100954.41;1087788;54;20076;-78
2022/03/15 03:59:54;;;;;;;7.40;4.18;;;;;;;6.42;66.66;100952.41;1087787;54;20643;-76
2022/03/15 04:00:58;;;;;;;6.10;4.00;;;;;;;6.47;66.76;100944.16;1087803;54;20050;-78
2022/03/15 04:02:00;;;;;;;6.95;3.78;;;;;;;6.51;66.28;100945.66;1087883;54;20038;-78
2022/03/15 04:03:05;;;;;;;7.50;3.83;;;;;;;6.56;66.26;100947.06;1088040;54;20034;-78
2022/03/15 04:04:07;;;;;;;7.63;4.15;;;;;;;6.56;66.07;100955.03;1087689;54;20055;-77
2022/03/15 04:05:12;;;;;;;6.72;3.78;;;;;;;6.59;66.15;100953.13;1087322;54;20051;-77
2022/03/15 04:06:14;;;;;;;6.90;3.75;;;;;;;6.56;66.39;100952.38;1087257;54;20038;-76
2022/03/15 04:07:18;;;;;;;8.18;4.68;;;;;;;6.45;66.76;100954.88;1087577;54;20050;-76
2022/03/15 04:08:20;;;;;;;7.72;4.22;;;;;;;6.47;66.38;100949.44;1087161;54;20034;-77
2022/03/15 04:09:25;;;;;;;7.82;3.78;;;;;;;6.45;66.82;100948.69;1086873;54;20041;-77
2022/03/15 04:10:32;;;;;;;8.07;4.18;;;;;;;6.43;66.90;100946.13;1087035;54;20047;-77
2022/03/15 04:11:34;;;;;;;6.88;4.13;;;;;;;6.47;66.56;100942.31;1087357;54;20059;-77
2022/03/15 04:12:39;;;;;;;6.85;3.90;;;;;;;6.53;66.36;100938.44;1087007;54;20038;-77
2022/03/15 04:13:41;;;;;;;10.65;4.30;;;;;;;6.43;66.51;100946.13;1086981;54;20034;-76
2022/03/15 04:14:46;;;;;;;12.57;5.00;;;;;;;6.20;67.36;100950.22;1086856;54;20058;-77
2022/03/15 04:15:51;;;;;;;10.85;4.68;;;;;;;6.02;68.27;100949.53;1087131;54;20181;-76
2022/03/15 04:16:53;;;;;;;8.25;4.85;;;;;;;5.98;68.27;100948.84;1086988;54;20038;-76
2022/03/15 04:17:57;;;;;;;9.65;5.30;;;;;;;5.97;68.57;100946.28;1087172;54;20086;-77
2022/03/15 04:18:59;;;;;;;9.68;5.20;;;;;;;5.93;68.46;100949.13;1087523;54;20035;-76
2022/03/15 04:20:03;;;;;;;9.93;5.40;;;;;;;5.96;68.71;100953.38;1087616;54;20031;-75
2022/03/15 04:21:05;;;;;;;9.13;4.97;;;;;;;6.09;68.37;100949.06;1087588;54;20046;-76
2022/03/15 04:22:09;;;;;;;8.68;4.93;;;;;;;6.17;67.74;100945.97;1087442;54;20062;-77
2022/03/15 04:23:11;;;;;;;8.02;4.70;;;;;;;6.21;67.37;100954.59;1087323;54;20069;-76
2022/03/15 04:24:17;;;;;;;9.20;5.13;;;;;;;6.01;67.96;100954.00;1087638;54;20069;-78
2022/03/15 04:25:22;;;;;;;11.30;5.68;;;;;;;5.83;68.74;100961.22;1087300;54;20121;-77
2022/03/15 04:26:26;;;;;;;8.35;4.63;;;;;;;5.70;69.40;100966.41;1087582;54;20038;-76
2022/03/15 04:27:31;;;;;;;11.07;4.80;;;;;;;5.80;69.21;100958.78;1087323;54;20050;-76
2022/03/15 04:28:32;;;;;;;8.80;5.28;;;;;;;5.89;68.81;100952.06;1087606;39;20516;-78
2022/03/15 04:29:36;;;;;;;9.07;4.82;;;;;;;5.99;68.57;100947.94;1087470;54;20021;-77
2022/03/15 04:30:38;;;;;;;9.13;4.95;;;;;;;6.05;68.21;100944.06;1087946;46;20054;-75
2022/03/15 04:31:42;;;;;;;8.85;4.45;;;;;;;6.12;67.73;100948.03;1087918;54;20034;-76
2022/03/15 04:32:44;;;;;;;9.35;5.15;;;;;;;6.13;67.91;100941.78;1088135;54;20567;-77
2022/03/15 04:33:48;;;;;;;10.38;5.50;;;;;;;5.95;68.32;100938.44;1087890;54;20052;-76
2022/03/15 04:34:52;;;;;;;10.82;5.13;;;;;;;5.87;68.69;100943.31;1087790;54;20105;-77
2022/03/15 04:35:54;;;;;;;9.48;5.40;;;;;;;5.81;68.81;100943.69;1087797;54;20030;-76
2022/03/15 04:36:58;;;;;;;10.52;4.65;;;;;;;5.77;69.34;100945.69;1087422;47;20031;-76
2022/03/15 04:38:00;;;;;;;10.52;5.18;;;;;;;5.75;69.34;100953.75;1087181;54;20038;-77
2022/03/15 04:39:05;;;;;;;9.98;4.97;;;;;;;5.80;68.97;100934.03;1087967;31;20663;-77
2022/03/15 04:40:09;;;;;;;11.75;4.75;;;;;;;5.90;68.95;100940.50;1086633;54;20050;-76
2022/03/15 04:41:13;;;;;;;7.50;4.60;;;;;;;5.96;68.50;100933.97;1087121;39;20501;-77
2022/03/15 04:42:18;;;;;;;9.10;4.40;;;;;;;6.07;68.24;100926.25;1086808;47;20094;-77
2022/03/15 04:43:23;;;;;;;8.02;4.50;;;;;;;6.14;68.04;100932.03;1086909;54;20038;-76
2022/03/15 04:44:25;;;;;;;8.32;4.05;;;;;;;6.20;67.59;100926.31;1086542;54;20042;-76
2022/03/15 04:45:29;;;;;;;7.25;4.05;;;;;;;6.27;67.66;100935.63;1086639;54;20045;-77
2022/03/15 04:46:31;;;;;;;6.85;3.83;;;;;;;6.24;67.62;100939.31;1087410;54;20039;-76
2022/03/15 06:41:10;;;;;;;10.45;5.60;;;;;;;5.63;70.45;100926.13;1087849;54;20623;-77
2022/03/15 06:42:12;;;;;;;10.52;5.72;;;;;;;5.70;70.01;100917.81;1088153;54;20031;-78
2022/03/15 06:43:16;;;;;;;13.43;6.32;;;;;;;5.71;70.20;100917.72;1088254;54;20038;-78
2022/03/15 06:44:18;;;;;;;11.25;6.30;;;;;;;5.79;70.17;100917.25;1087980;54;20035;-77
2022/03/15 06:45:22;;;;;;;8.55;5.53;;;;;;;5.96;69.61;100918.88;1088079;54;20030;-78
2022/03/15 06:46:24;;;;;;;15.13;6.82;;;;;;;5.87;70.11;100920.31;1087864;54;20030;-78
2022/03/15 06:47:28;;;;;;;9.25;5.85;;;;;;;5.86;70.23;100921.25;1088836;46;20835;-77
2022/03/15 06:48:32;;;;;;;14.55;6.30;;;;;;;5.76;70.68;100928.91;1087786;54;20031;-77
2022/03/15 06:49:34;;;;;;;12.63;6.47;;;;;;;5.72;70.82;100929.16;1087766;54;20030;-78
2022/03/15 06:50:39;;;;;;;12.45;6.68;;;;;;;5.73;70.73;100931.75;1087814;54;20772;-78
2022/03/15 06:51:44;;;;;;;9.30;6.07;;;;;;;5.82;70.36;100927.69;1087844;54;20038;-79
2022/03/15 06:52:49;;;;;;;12.90;6.55;;;;;;;5.76;70.83;100930.72;1088310;54;20031;-77